KFTK

Godman AAF Airport

Fort Knox, Kentucky, USA
TAF AMD KFTK 182155Z 1821/1923 28009KT 9999 OVC020 QNH3013INS BECMG 1900/1901 VRB06KT 9999 OVC008 QNH3016INS BECMG 1906/1907 VRB06KT 9000 -DZ OVC008 QNH3002INS BECMG 1917/1918 28009KT 9000 -DZ OVC005 QNH3002INS TX13/1821Z TN03/1910Z
Issued Valid From Valid To
Nov-18 @ 21:55 UTC
(3 hours ago)
Nov-18 @ 21:00 UTC
(4 hours ago)
Nov-19 @ 23:00 UTC
(in 22 hours)
Expired Click to View Nov-18 @ 21:00 to Nov-19 @ 00:00
TAF AMD KFTK 182155Z 1821/1923 28009KT 9999 OVC020 QNH3013INS
Wind Visibility Clouds Readings
280° at 9 knots Greater than 6 miles
  • Overcast at 2,000' AGL
Altimeter 30.12" Hg
Pressure 1020 hPa
Becoming Nov-19 @ 00:00 to Nov-19 @ 06:00
BECMG 1900/1901 VRB06KT 9999 OVC008 QNH3016INS
Wind Visibility Clouds Readings
Variable at 6 knots Greater than 6 miles
  • Overcast at 800' AGL
Altimeter 30.15" Hg
Pressure 1021 hPa
Becoming Nov-19 @ 06:00 to Nov-19 @ 17:00
BECMG 1906/1907 VRB06KT 9000 -DZ OVC008 QNH3002INS
Wind Visibility Clouds Conditions Readings
Variable at 6 knots 5.6 miles
  • Overcast at 800' AGL
  • Light Drizzle
Altimeter 30.03" Hg
Pressure 1017 hPa
Becoming Nov-19 @ 17:00 to Nov-19 @ 23:00
BECMG 1917/1918 28009KT 9000 -DZ OVC005 QNH3002INS TX13/1821Z TN03/1910Z
Wind Visibility Clouds Conditions Readings
280° at 9 knots 5.6 miles
  • Overcast at 500' AGL
  • Light Drizzle
Altimeter 30.03" Hg
Pressure 1017 hPa
TAF AMD KFTK 182155Z 1821/1923 28009KT 9999 OVC020 QNH3013INS BECMG 1900/1901 VRB06KT 9999 OVC008 QNH3016INS BECMG 1906/1907 VRB06KT 9000 -DZ OVC008 QNH3002INS BECMG 1917/1918 28009KT 9000 -DZ OVC005 QNH3002INS TX13/1821Z TN03/1910Z
Issued Nov-18 @ 21:55 UTC
(3 hours ago)
Valid From Nov-18 @ 21:00 UTC
(4 hours ago)
Valid To Nov-19 @ 23:00 UTC
(in 22 hours)
Nov-18 @ 21:00 - Nov-19 @ 00:00
Wind Visibility
280° at 9 knots Greater than 6 miles
Clouds
  • Overcast at 2,000' AGL
Becoming Nov-19 @ 00:00 - Nov-19 @ 06:00
Wind Visibility
Variable at 6 knots Greater than 6 miles
Clouds
  • Overcast at 800' AGL
Becoming Nov-19 @ 06:00 - Nov-19 @ 17:00
Wind Visibility
Variable at 6 knots 5.6 miles
Clouds
  • Overcast at 800' AGL
Conditions
  • Light Drizzle
Becoming Nov-19 @ 17:00 - Nov-19 @ 23:00
Wind Visibility
280° at 9 knots 5.6 miles
Clouds
  • Overcast at 500' AGL
Conditions
  • Light Drizzle